Time;durP1;ratioP1;P1;durP2;ratioP2;P2;SDS_P1;SDS_P2;PMS_P1;PMS_P2;Temp;Humidity;BMP_temperature;BMP_pressure;BME280_temperature;BME280_humidity;BME280_pressure;Samples;Min_cycle;Max_cycle;Signal;HPM_P1;HPM_P2
2023/01/25 00:02:17;;;;;;;6.43;4.15;;;20.70;49.10;;;;;;5020051;28;20022;-67
2023/01/25 00:04:43;;;;;;;5.90;4.00;;;20.70;49.10;;;;;;5017585;28;20120;-67
2023/01/25 00:07:09;;;;;;;5.72;3.80;;;20.70;49.20;;;;;;5018709;28;20033;-66
2023/01/25 00:09:34;;;;;;;4.90;3.50;;;20.70;49.20;;;;;;5022921;28;20021;-66
2023/01/25 00:12:00;;;;;;;5.57;3.88;;;20.70;49.20;;;;;;5019622;28;20037;-66
2023/01/25 00:14:26;;;;;;;5.55;3.65;;;20.70;49.30;;;;;;5020676;28;20481;-66
2023/01/25 00:16:51;;;;;;;5.20;3.50;;;20.60;49.20;;;;;;5019962;28;20426;-66
2023/01/25 00:19:17;;;;;;;5.57;3.90;;;20.60;49.30;;;;;;5022719;28;20026;-66
2023/01/25 00:21:43;;;;;;;4.85;3.70;;;20.60;49.30;;;;;;5038290;28;20468;-67
2023/01/25 00:24:10;;;;;;;5.90;4.10;;;20.60;49.30;;;;;;5025345;28;20533;-66
2023/01/25 00:26:37;;;;;;;4.90;3.55;;;20.60;49.30;;;;;;5017705;28;20029;-67
2023/01/25 00:29:03;;;;;;;4.85;3.85;;;20.50;49.40;;;;;;5018346;28;20043;-67
2023/01/25 00:31:47;;;;;;;5.10;3.53;;;20.50;49.40;;;;;;5016237;28;20017;-67
2023/01/25 00:34:25;;;;;;;5.43;3.70;;;20.50;49.40;;;;;;5021156;28;20022;-67
2023/01/25 00:36:56;;;;;;;5.57;3.80;;;20.50;49.50;;;;;;5017812;28;20032;-66
2023/01/25 00:39:22;;;;;;;6.00;3.60;;;20.50;49.50;;;;;;5023553;28;20064;-67
2023/01/25 00:41:48;;;;;;;5.05;3.85;;;20.40;49.40;;;;;;5016165;28;20061;-67
2023/01/25 00:44:13;;;;;;;5.00;3.50;;;20.40;49.50;;;;;;5021251;28;20512;-67
2023/01/25 00:46:39;;;;;;;5.95;3.75;;;20.40;49.50;;;;;;5019279;28;20120;-66
2023/01/25 00:49:05;;;;;;;5.68;3.85;;;20.40;49.60;;;;;;5015993;28;20025;-67
2023/01/25 00:51:30;;;;;;;5.90;3.65;;;20.40;49.60;;;;;;5018290;28;20450;-66
2023/01/25 00:53:56;;;;;;;4.70;3.40;;;20.40;49.60;;;;;;5019033;28;20087;-66
2023/01/25 00:56:22;;;;;;;5.18;3.40;;;20.40;49.60;;;;;;5019314;28;20481;-66
2023/01/25 00:58:47;;;;;;;4.97;3.67;;;20.40;49.70;;;;;;5022587;28;20113;-66
2023/01/25 01:01:13;;;;;;;4.68;3.53;;;20.40;49.70;;;;;;5016510;28;20080;-67
2023/01/25 01:03:38;;;;;;;5.43;3.80;;;20.30;49.70;;;;;;5039714;28;20022;-67
2023/01/25 01:06:10;;;;;;;7.10;4.03;;;20.30;49.70;;;;;;5024635;28;20088;-67
2023/01/25 01:08:40;;;;;;;5.35;3.45;;;20.30;49.70;;;;;;5022510;28;20033;-66
2023/01/25 01:11:09;;;;;;;5.00;3.75;;;20.30;49.70;;;;;;5019892;28;20084;-66
2023/01/25 01:13:35;;;;;;;4.85;3.38;;;20.30;49.70;;;;;;5023425;28;20029;-67
2023/01/25 01:16:02;;;;;;;5.07;3.72;;;20.30;49.80;;;;;;5024635;28;20477;-66
2023/01/25 01:18:32;;;;;;;5.35;3.85;;;20.20;49.80;;;;;;5020832;28;20037;-66
2023/01/25 01:20:58;;;;;;;4.10;3.30;;;20.20;49.80;;;;;;5022897;28;20026;-66
2023/01/25 01:23:24;;;;;;;5.25;3.33;;;20.20;49.90;;;;;;5022127;28;20355;-68
2023/01/25 01:25:49;;;;;;;4.90;3.40;;;20.20;49.90;;;;;;5026139;28;20068;-67
2023/01/25 01:28:15;;;;;;;5.13;3.67;;;20.20;49.90;;;;;;5020874;28;20033;-66
2023/01/25 01:30:41;;;;;;;5.15;3.42;;;20.20;49.90;;;;;;5023701;28;20028;-66
2023/01/25 01:33:07;;;;;;;5.38;3.60;;;20.20;49.90;;;;;;5024145;28;20503;-67
2023/01/25 01:35:32;;;;;;;5.07;3.65;;;20.20;50.00;;;;;;5021133;28;20048;-67
2023/01/25 01:37:58;;;;;;;4.88;3.63;;;20.10;50.00;;;;;;5021016;28;20567;-66
2023/01/25 01:40:24;;;;;;;3.95;3.08;;;20.10;50.00;;;;;;5019295;28;20182;-66
2023/01/25 01:42:59;;;;;;;4.32;3.03;;;20.10;49.90;;;;;;5019849;28;20392;-67
2023/01/25 01:45:46;;;;;;;4.88;3.40;;;20.10;50.00;;;;;;5022574;28;20102;-67
2023/01/25 01:48:31;;;;;;;4.75;3.20;;;20.10;50.00;;;;;;5021881;28;20446;-66
2023/01/25 01:51:00;;;;;;;4.25;3.25;;;20.10;50.00;;;;;;5019430;28;20103;-66
2023/01/25 01:53:29;;;;;;;5.15;3.15;;;20.10;50.00;;;;;;5021890;28;20478;-67
2023/01/25 01:55:59;;;;;;;4.00;2.90;;;20.10;50.10;;;;;;5036336;28;20461;-67
2023/01/25 01:58:25;;;;;;;4.72;3.10;;;20.10;50.10;;;;;;5020968;28;20027;-66
2023/01/25 02:00:51;;;;;;;5.13;3.38;;;20.00;50.00;;;;;;5017635;28;20034;-67
2023/01/25 02:03:18;;;;;;;5.25;3.40;;;20.00;50.10;;;;;;5022779;28;20034;-66
2023/01/25 02:05:57;;;;;;;4.65;3.28;;;20.00;50.10;;;;;;5019905;28;20499;-66
2023/01/25 02:08:23;;;;;;;;;;;20.00;50.10;;;;;;5024608;28;20028;-67
2023/01/25 02:10:49;;;;;;;4.30;3.05;;;20.00;50.10;;;;;;5018757;28;19917;-66
2023/01/25 02:13:17;;;;;;;4.50;3.17;;;20.00;50.10;;;;;;5018124;28;20026;-66
2023/01/25 02:19:06;;;;;;;4.85;3.15;;;20.00;50.20;;;;;;5019966;28;20059;-67
2023/01/25 02:21:42;;;;;;;4.45;3.35;;;19.90;50.20;;;;;;5022920;28;20096;-67
2023/01/25 02:24:19;;;;;;;3.78;2.90;;;19.90;50.20;;;;;;5019504;28;20057;-66
2023/01/25 02:26:45;;;;;;;4.03;2.90;;;19.90;50.20;;;;;;5018591;28;20096;-67
2023/01/25 02:29:12;;;;;;;4.43;3.13;;;19.90;50.20;;;;;;5022494;28;20083;-66
2023/01/25 02:31:37;;;;;;;4.30;3.15;;;19.90;50.30;;;;;;5021245;28;20519;-66
2023/01/25 02:34:03;;;;;;;3.88;2.97;;;19.90;50.30;;;;;;5023044;28;20054;-67
2023/01/25 02:36:31;;;;;;;4.20;3.10;;;19.90;50.30;;;;;;5020809;28;20028;-66
2023/01/25 02:39:07;;;;;;;3.95;3.03;;;19.90;50.30;;;;;;5028721;28;20034;-66
2023/01/25 02:41:41;;;;;;;4.60;3.30;;;19.80;50.70;;;;;;5021088;28;20037;-67
2023/01/25 02:44:18;;;;;;;3.80;3.10;;;19.80;50.30;;;;;;5021822;28;20030;-67
2023/01/25 02:46:44;;;;;;;4.20;3.05;;;19.80;50.30;;;;;;5023076;28;20033;-66
2023/01/25 02:49:10;;;;;;;3.80;2.92;;;19.80;50.30;;;;;;5027435;28;20540;-66
2023/01/25 02:51:39;;;;;;;4.10;2.83;;;19.80;50.30;;;;;;5019337;28;20026;-67
2023/01/25 02:54:06;;;;;;;4.18;2.97;;;19.80;50.30;;;;;;5019272;28;20017;-67
2023/01/25 02:56:32;;;;;;;3.97;2.97;;;19.80;50.30;;;;;;5019176;28;20480;-67
2023/01/25 02:58:58;;;;;;;3.67;2.50;;;19.80;50.30;;;;;;5018036;28;20032;-66
2023/01/25 03:01:24;;;;;;;3.97;3.00;;;19.80;50.30;;;;;;5019700;28;20113;-67
2023/01/25 03:03:49;;;;;;;4.68;3.03;;;19.80;50.40;;;;;;5020687;28;20034;-66
2023/01/25 03:06:15;;;;;;;3.63;2.67;;;19.80;50.30;;;;;;5023595;28;20041;-66
2023/01/25 03:08:41;;;;;;;4.05;2.90;;;19.80;50.30;;;;;;5022806;28;20030;-66
2023/01/25 03:11:07;;;;;;;3.92;2.80;;;19.80;50.40;;;;;;5020370;28;20025;-67
2023/01/25 03:13:33;;;;;;;4.10;3.08;;;19.80;50.40;;;;;;5024656;28;20542;-66
2023/01/25 03:16:07;;;;;;;4.40;2.88;;;19.80;50.40;;;;;;5021915;28;20057;-66
2023/01/25 03:18:33;;;;;;;4.53;2.92;;;19.80;50.40;;;;;;5021648;28;20495;-66
2023/01/25 03:21:09;;;;;;;3.65;2.80;;;19.70;50.40;;;;;;5018928;28;20030;-66
2023/01/25 03:23:35;;;;;;;4.20;3.10;;;19.70;50.40;;;;;;5028495;28;20042;-66
2023/01/25 03:26:12;;;;;;;3.55;2.60;;;19.80;50.40;;;;;;5018879;28;20334;-66
2023/01/25 03:28:40;;;;;;;3.88;2.78;;;19.70;50.40;;;;;;5023135;28;20485;-66
2023/01/25 03:31:07;;;;;;;4.13;3.08;;;19.70;50.40;;;;;;5020551;28;20105;-66
2023/01/25 03:33:33;;;;;;;4.07;2.97;;;19.70;50.50;;;;;;5021528;28;20021;-66
2023/01/25 03:35:59;;;;;;;3.78;2.70;;;19.70;51.00;;;;;;5017500;28;20436;-66
2023/01/25 03:38:24;;;;;;;3.70;2.50;;;19.70;50.40;;;;;;5019106;28;20212;-66
2023/01/25 03:40:50;;;;;;;3.72;2.63;;;19.70;50.50;;;;;;5018786;28;20041;-66
2023/01/25 03:43:16;;;;;;;3.60;2.50;;;19.70;50.50;;;;;;5022934;28;20053;-66
2023/01/25 03:45:42;;;;;;;3.80;2.55;;;19.70;50.50;;;;;;5021568;28;20111;-66
2023/01/25 03:48:08;;;;;;;4.20;2.70;;;19.70;50.50;;;;;;5015896;28;20469;-66
2023/01/25 03:50:33;;;;;;;3.75;2.72;;;19.60;50.40;;;;;;5019073;28;20022;-66
2023/01/25 03:53:05;;;;;;;3.50;2.50;;;19.70;50.50;;;;;;5019372;28;20078;-66
2023/01/25 03:55:30;;;;;;;3.70;2.88;;;19.70;51.00;;;;;;5019135;28;20566;-66
2023/01/25 03:57:56;;;;;;;3.50;2.50;;;19.60;50.40;;;;;;5019533;28;20279;-67
2023/01/25 04:00:21;;;;;;;3.38;2.40;;;19.60;50.50;;;;;;5019061;28;20025;-66
2023/01/25 04:02:47;;;;;;;3.67;2.35;;;19.70;50.50;;;;;;5021284;28;20030;-66
2023/01/25 04:05:13;;;;;;;3.63;2.58;;;19.60;50.40;;;;;;5017104;28;20025;-66
2023/01/25 04:07:38;;;;;;;3.30;2.53;;;19.60;50.50;;;;;;5019955;28;20469;-66
2023/01/25 04:10:06;;;;;;;3.35;2.40;;;19.60;50.50;;;;;;5020615;28;20385;-66
2023/01/25 04:12:32;;;;;;;3.60;2.58;;;19.60;50.50;;;;;;5017524;28;20030;-66
2023/01/25 04:14:57;;;;;;;3.20;2.47;;;19.60;50.50;;;;;;5018752;28;20507;-66
2023/01/25 04:17:23;;;;;;;3.70;2.53;;;19.60;50.50;;;;;;5019039;28;20617;-67
2023/01/25 04:19:49;;;;;;;3.40;2.33;;;19.60;50.50;;;;;;5019263;28;20113;-66
2023/01/25 04:22:15;;;;;;;3.53;2.55;;;19.60;50.50;;;;;;5018139;28;20475;-66
2023/01/25 04:24:41;;;;;;;3.50;2.40;;;19.60;50.50;;;;;;5017397;28;20562;-66
2023/01/25 04:27:07;;;;;;;3.10;2.33;;;19.60;50.50;;;;;;5019710;28;20073;-66
2023/01/25 04:29:34;;;;;;;3.17;2.50;;;19.60;50.50;;;;;;5018752;28;20033;-66
2023/01/25 04:32:00;;;;;;;3.58;2.40;;;19.60;50.40;;;;;;5020541;28;20029;-66
2023/01/25 04:34:25;;;;;;;2.92;2.10;;;19.60;50.50;;;;;;5019255;28;20064;-66
2023/01/25 04:36:51;;;;;;;3.40;2.30;;;19.60;50.50;;;;;;5016851;28;20037;-66
2023/01/25 04:39:17;;;;;;;3.58;2.10;;;19.60;50.50;;;;;;5026786;28;20037;-66
2023/01/25 04:41:43;;;;;;;2.83;1.88;;;19.60;50.40;;;;;;5018576;28;20061;-66
2023/01/25 04:44:09;;;;;;;2.90;2.03;;;19.70;50.50;;;;;;5020979;28;20065;-66
2023/01/25 04:46:34;;;;;;;2.65;1.90;;;19.60;50.40;;;;;;5018914;28;20100;-67
2023/01/25 04:49:00;;;;;;;2.95;2.17;;;19.60;50.40;;;;;;5019935;28;20022;-66
2023/01/25 04:51:26;;;;;;;3.60;2.08;;;19.70;50.50;;;;;;5021928;28;20053;-66
2023/01/25 04:53:51;;;;;;;2.85;1.90;;;19.60;50.40;;;;;;5016385;28;20026;-67
2023/01/25 04:56:17;;;;;;;3.20;2.00;;;19.60;50.40;;;;;;5017460;28;20046;-67
2023/01/25 04:58:42;;;;;;;2.60;1.70;;;19.60;50.40;;;;;;5015291;28;20057;-66
2023/01/25 05:01:09;;;;;;;3.00;1.80;;;19.60;50.30;;;;;;5014804;28;20026;-66
2023/01/25 05:03:34;;;;;;;2.42;1.80;;;19.70;50.40;;;;;;5026824;28;20032;-67
2023/01/25 05:06:00;;;;;;;3.47;2.10;;;19.70;50.40;;;;;;5021713;28;20030;-66
2023/01/25 05:08:25;;;;;;;3.08;2.30;;;19.70;50.40;;;;;;5015690;28;20366;-66
2023/01/25 05:10:51;;;;;;;3.10;2.25;;;19.60;50.40;;;;;;5016414;28;20030;-67
2023/01/25 05:13:17;;;;;;;2.85;2.08;;;19.60;50.40;;;;;;5022995;28;20381;-67
2023/01/25 05:15:42;;;;;;;2.90;2.10;;;19.60;50.40;;;;;;5026755;28;20030;-66
2023/01/25 05:18:08;;;;;;;2.80;1.92;;;19.60;50.60;;;;;;5017817;28;20057;-66
2023/01/25 05:20:34;;;;;;;3.50;2.13;;;19.60;50.60;;;;;;5017328;28;20044;-66
2023/01/25 05:22:59;;;;;;;3.30;2.25;;;19.60;50.60;;;;;;5016161;28;20026;-66
2023/01/25 05:28:09;;;;;;;3.50;2.15;;;19.60;50.50;;;;;;5017983;28;20610;-66
2023/01/25 05:30:34;;;;;;;3.53;2.10;;;19.60;50.60;;;;;;5021795;28;20470;-67
2023/01/25 05:33:00;;;;;;;3.15;2.20;;;19.60;50.50;;;;;;5014657;28;20033;-66
2023/01/25 05:35:26;;;;;;;2.92;2.17;;;19.60;50.60;;;;;;5016643;28;20057;-66
2023/01/25 05:37:56;;;;;;;3.05;2.00;;;19.60;50.60;;;;;;5017339;28;20043;-67
2023/01/25 05:40:22;;;;;;;2.90;1.90;;;19.60;50.60;;;;;;5034323;28;20022;-66
2023/01/25 05:42:58;;;;;;;3.30;2.30;;;19.60;50.60;;;;;;5020178;28;20091;-66
2023/01/25 05:45:24;;;;;;;3.13;2.22;;;19.60;50.60;;;;;;5020738;28;20485;-66
2023/01/25 05:47:55;;;;;;;3.15;2.40;;;19.60;50.60;;;;;;5017713;28;20121;-67
2023/01/25 05:50:22;;;;;;;3.00;2.30;;;19.60;50.70;;;;;;5021716;28;20013;-66
2023/01/25 05:52:48;;;;;;;3.30;2.20;;;19.60;50.80;;;;;;5020156;28;20389;-67
2023/01/25 05:55:13;;;;;;;3.83;2.20;;;19.60;50.90;;;;;;5023253;28;20022;-66
2023/01/25 05:57:39;;;;;;;3.03;2.00;;;19.60;51.00;;;;;;5020193;28;20128;-66
2023/01/25 06:00:05;;;;;;;3.10;2.40;;;19.50;51.00;;;;;;5019856;28;20033;-66
2023/01/25 06:02:31;;;;;;;3.10;2.30;;;19.50;51.10;;;;;;5023369;28;20033;-66
2023/01/25 06:04:57;;;;;;;3.50;2.47;;;19.60;51.20;;;;;;5023140;28;20092;-66
2023/01/25 06:07:23;;;;;;;3.13;2.40;;;19.60;51.30;;;;;;5021861;28;20038;-67
2023/01/25 06:09:49;;;;;;;3.50;2.30;;;19.60;51.40;;;;;;5021413;28;20106;-66
2023/01/25 06:12:15;;;;;;;2.72;2.08;;;19.60;51.40;;;;;;5020042;28;20032;-66
2023/01/25 06:14:41;;;;;;;3.45;2.47;;;19.50;51.40;;;;;;5021025;28;20036;-66
2023/01/25 06:17:07;;;;;;;3.50;2.38;;;19.60;51.50;;;;;;5020230;28;20033;-67
2023/01/25 06:19:33;;;;;;;3.45;2.10;;;19.60;51.50;;;;;;5020106;28;20068;-67
2023/01/25 06:21:58;;;;;;;3.05;2.20;;;19.60;51.50;;;;;;5023484;28;20065;-66
2023/01/25 06:24:24;;;;;;;4.75;2.25;;;19.50;51.40;;;;;;5020359;28;20038;-66
2023/01/25 06:26:49;;;;;;;3.65;2.20;;;19.50;51.40;;;;;;5036372;28;20489;-67
2023/01/25 06:29:15;;;;;;;3.53;2.33;;;19.60;51.50;;;;;;5020498;28;20028;-66
2023/01/25 06:31:41;;;;;;;3.35;2.38;;;19.60;51.40;;;;;;5021075;28;20422;-66
2023/01/25 06:34:07;;;;;;;3.47;2.33;;;19.50;51.40;;;;;;5019228;28;20034;-66
2023/01/25 06:36:33;;;;;;;3.33;2.45;;;19.50;51.40;;;;;;5016665;28;20119;-66
2023/01/25 06:38:59;;;;;;;3.17;2.20;;;19.60;51.40;;;;;;5022471;28;20092;-66
2023/01/25 06:41:25;;;;;;;3.45;2.35;;;19.50;51.40;;;;;;5020619;28;20049;-66
2023/01/25 06:43:51;;;;;;;3.35;2.17;;;19.50;51.40;;;;;;5028048;28;20476;-66
2023/01/25 06:46:17;;;;;;;3.25;2.20;;;19.50;51.40;;;;;;5018202;28;20037;-66
2023/01/25 06:48:42;;;;;;;3.50;2.20;;;19.50;51.40;;;;;;5022463;28;20033;-66
2023/01/25 06:51:11;;;;;;;3.50;2.40;;;19.60;51.50;;;;;;5021136;28;20030;-66
2023/01/25 06:53:39;;;;;;;3.40;2.22;;;19.50;51.40;;;;;;5018747;28;20017;-66
2023/01/25 06:56:10;;;;;;;3.28;2.35;;;19.60;51.40;;;;;;5020777;28;20544;-67
2023/01/25 06:58:37;;;;;;;3.00;1.98;;;19.50;51.40;;;;;;5018555;28;20026;-67
2023/01/25 07:01:11;;;;;;;3.30;2.30;;;19.60;51.40;;;;;;5019940;28;20401;-66
2023/01/25 07:03:37;;;;;;;3.47;2.38;;;19.50;51.40;;;;;;5020350;28;20043;-66
2023/01/25 07:06:05;;;;;;;3.15;2.10;;;19.50;51.40;;;;;;5020729;28;20033;-66
2023/01/25 07:08:32;;;;;;;3.00;2.00;;;19.50;51.40;;;;;;5022761;28;20037;-66
2023/01/25 07:11:04;;;;;;;4.05;2.30;;;19.50;51.40;;;;;;5026836;28;20352;-67
2023/01/25 07:13:30;;;;;;;3.17;2.20;;;19.60;52.10;;;;;;5020290;28;20049;-68
2023/01/25 07:15:58;;;;;;;3.45;2.45;;;19.60;52.10;;;;;;5021065;28;20036;-66
2023/01/25 07:18:26;;;;;;;4.18;2.53;;;19.70;52.10;;;;;;5018624;28;20324;-67
2023/01/25 07:20:51;;;;;;;3.80;2.60;;;19.80;52.00;;;;;;5018300;28;20084;-67
2023/01/25 07:23:18;;;;;;;4.63;2.60;;;19.90;52.00;;;;;;5023407;28;20436;-66
2023/01/25 07:25:48;;;;;;;3.20;2.30;;;20.00;51.40;;;;;;5020476;28;20036;-67
2023/01/25 07:28:16;;;;;;;3.72;2.40;;;20.00;51.50;;;;;;5018759;28;20025;-67
2023/01/25 07:30:42;;;;;;;3.97;2.67;;;20.00;51.40;;;;;;5021097;28;20907;-67
2023/01/25 07:33:08;;;;;;;3.78;2.42;;;20.10;51.30;;;;;;5021929;28;20054;-67
2023/01/25 07:35:34;;;;;;;5.00;2.75;;;20.10;51.10;;;;;;5022739;28;20477;-67
2023/01/25 07:38:00;;;;;;;3.63;2.50;;;20.20;51.10;;;;;;5019400;28;20036;-67
2023/01/25 07:40:25;;;;;;;4.63;2.80;;;20.20;51.00;;;;;;5021401;28;20370;-67
2023/01/25 07:42:51;;;;;;;5.20;2.70;;;20.20;51.00;;;;;;5019182;28;20060;-66
2023/01/25 07:45:18;;;;;;;3.70;2.67;;;20.20;50.90;;;;;;5020967;28;20115;-68
2023/01/25 07:47:43;;;;;;;3.85;2.53;;;20.30;50.90;;;;;;5019689;28;20033;-66
2023/01/25 07:50:10;;;;;;;4.10;2.40;;;20.30;50.80;;;;;;5024790;28;20381;-69
2023/01/25 07:52:36;;;;;;;5.22;2.60;;;20.30;50.70;;;;;;5023127;28;20036;-68
2023/01/25 07:55:03;;;;;;;3.72;2.70;;;20.30;50.70;;;;;;5016553;28;20026;-66
2023/01/25 07:57:28;;;;;;;5.38;3.00;;;20.30;50.60;;;;;;5017594;28;20037;-67
2023/01/25 07:59:54;;;;;;;3.90;2.40;;;20.30;50.90;;;;;;5016926;28;20038;-67
2023/01/25 08:02:19;;;;;;;3.72;2.55;;;20.40;50.70;;;;;;5017461;28;20463;-67
2023/01/25 08:04:45;;;;;;;3.58;2.30;;;20.40;50.60;;;;;;5027189;28;20077;-67
2023/01/25 08:07:12;;;;;;;4.03;2.50;;;20.40;50.50;;;;;;5020831;28;20041;-67
2023/01/25 08:09:38;;;;;;;3.92;2.53;;;20.40;50.50;;;;;;5021075;28;20034;-67
2023/01/25 08:12:04;;;;;;;3.40;2.40;;;20.40;50.40;;;;;;5017390;28;20025;-67
2023/01/25 08:14:30;;;;;;;3.95;2.40;;;20.40;50.40;;;;;;5018497;28;20030;-67
2023/01/25 08:16:56;;;;;;;3.97;2.55;;;20.40;50.30;;;;;;5020626;28;20852;-67
2023/01/25 08:19:23;;;;;;;3.33;2.20;;;20.40;50.20;;;;;;5015119;28;20041;-68
2023/01/25 08:21:49;;;;;;;3.88;2.47;;;20.50;50.30;;;;;;5019994;28;20030;-68
2023/01/25 08:24:15;;;;;;;3.47;2.17;;;20.50;50.40;;;;;;5018266;28;20132;-68
2023/01/25 08:26:42;;;;;;;3.53;2.30;;;20.50;50.40;;;;;;5016568;28;20113;-67
2023/01/25 08:29:10;;;;;;;3.28;2.33;;;20.50;50.20;;;;;;5018915;28;20041;-67
2023/01/25 08:31:36;;;;;;;4.13;2.53;;;20.50;50.20;;;;;;5025125;28;20028;-68
2023/01/25 08:34:02;;;;;;;3.22;2.33;;;20.50;50.10;;;;;;5021137;28;20400;-68
2023/01/25 08:36:28;;;;;;;3.83;2.40;;;20.50;50.10;;;;;;5019735;28;20032;-68
2023/01/25 08:38:57;;;;;;;3.55;2.28;;;20.60;50.10;;;;;;5018173;28;20021;-68
2023/01/25 08:41:23;;;;;;;3.60;2.30;;;20.60;50.10;;;;;;5018652;28;20028;-69
2023/01/25 08:43:52;;;;;;;3.08;2.10;;;20.60;50.00;;;;;;5019783;28;20272;-67
2023/01/25 08:46:18;;;;;;;3.30;2.30;;;20.60;50.00;;;;;;5015478;28;20042;-70
2023/01/25 08:48:44;;;;;;;3.33;2.20;;;20.60;50.10;;;;;;5018007;28;20091;-69
2023/01/25 08:51:16;;;;;;;3.60;2.50;;;20.70;50.20;;;;;;5025640;28;20389;-69
2023/01/25 08:53:41;;;;;;;3.25;2.20;;;20.70;50.00;;;;;;5019923;28;20018;-69
2023/01/25 08:56:09;;;;;;;3.08;2.20;;;20.80;50.10;;;;;;5018299;28;20553;-68
2023/01/25 08:58:37;;;;;;;3.10;2.20;;;20.80;49.90;;;;;;5019022;28;20017;-69
2023/01/25 09:01:06;;;;;;;3.80;2.30;;;20.80;49.80;;;;;;5017016;28;20033;-67
2023/01/25 09:03:35;;;;;;;3.40;2.40;;;20.90;49.70;;;;;;5035391;28;20485;-67
2023/01/25 09:06:00;;;;;;;3.45;2.42;;;21.00;49.50;;;;;;5017870;28;20499;-67
2023/01/25 09:08:26;;;;;;;3.50;2.40;;;21.00;49.40;;;;;;5018947;28;20033;-67
2023/01/25 09:10:52;;;;;;;3.58;2.35;;;21.10;49.40;;;;;;5015437;28;20022;-68
2023/01/25 09:13:17;;;;;;;3.10;2.30;;;21.10;49.30;;;;;;5019418;28;20105;-67
2023/01/25 09:15:43;;;;;;;3.85;2.42;;;21.20;49.20;;;;;;5017981;28;20093;-67
2023/01/25 09:18:09;;;;;;;3.22;2.40;;;21.20;49.10;;;;;;5018397;28;20478;-68
2023/01/25 09:20:38;;;;;;;4.03;2.50;;;21.30;49.00;;;;;;5019252;28;20468;-68
2023/01/25 09:23:03;;;;;;;3.55;2.13;;;21.30;48.90;;;;;;5018595;28;20206;-66
2023/01/25 09:25:29;;;;;;;3.85;2.50;;;21.30;48.90;;;;;;5022326;28;20140;-66
2023/01/25 09:27:54;;;;;;;3.20;2.22;;;21.30;48.80;;;;;;5036693;28;20036;-66
2023/01/25 09:30:20;;;;;;;3.35;2.38;;;21.30;48.70;;;;;;5024595;28;20034;-67
2023/01/25 09:32:49;;;;;;;3.75;2.60;;;21.30;48.70;;;;;;5022537;28;20030;-67
2023/01/25 09:35:15;;;;;;;3.10;2.10;;;21.30;48.70;;;;;;5021997;28;20028;-67
2023/01/25 09:37:41;;;;;;;3.08;2.22;;;21.30;48.70;;;;;;5020083;28;20048;-67
2023/01/25 09:40:21;;;;;;;3.53;2.38;;;21.30;48.70;;;;;;5022694;28;20497;-67
2023/01/25 09:43:08;;;;;;;3.17;2.10;;;21.20;48.60;;;;;;5024868;28;20084;-66
2023/01/25 09:45:35;;;;;;;4.25;2.40;;;21.20;48.60;;;;;;5020958;28;20131;-66
2023/01/25 09:48:30;;;;;;;3.20;2.30;;;21.20;48.60;;;;;;5023425;28;20095;-66
2023/01/25 09:51:32;;;;;;;3.17;2.15;;;21.20;48.60;;;;;;5023105;28;20084;-67
2023/01/25 09:53:58;;;;;;;3.13;2.13;;;21.20;48.60;;;;;;5021982;28;20072;-66
2023/01/25 09:56:31;;;;;;;2.70;2.00;;;21.20;48.60;;;;;;5021881;28;20435;-67
2023/01/25 09:59:04;;;;;;;2.92;2.00;;;21.10;48.50;;;;;;5022254;28;20044;-67
2023/01/25 10:01:54;;;;;;;3.25;2.10;;;21.10;48.50;;;;;;5021242;28;20186;-66
2023/01/25 10:04:27;;;;;;;2.75;1.80;;;21.10;48.50;;;;;;5018185;28;20060;-67
2023/01/25 10:06:59;;;;;;;3.60;2.10;;;21.10;48.60;;;;;;5020017;28;20092;-66
2023/01/25 10:09:27;;;;;;;2.50;1.88;;;21.00;48.60;;;;;;5024294;28;20022;-66
2023/01/25 10:12:01;;;;;;;3.20;1.70;;;21.00;48.60;;;;;;5022203;28;20041;-67
2023/01/25 10:14:32;;;;;;;2.97;2.05;;;21.00;48.60;;;;;;5021199;28;20060;-67
2023/01/25 10:17:04;;;;;;;3.17;1.95;;;21.00;48.60;;;;;;5022970;28;20505;-67
2023/01/25 10:20:01;;;;;;;3.20;1.95;;;21.00;48.70;;;;;;5021213;28;20510;-66
2023/01/25 10:22:29;;;;;;;2.97;2.00;;;20.90;48.60;;;;;;5016293;28;20025;-67
2023/01/25 10:24:55;;;;;;;2.47;2.00;;;20.90;48.70;;;;;;5022307;28;20036;-67
2023/01/25 10:27:30;;;;;;;2.75;1.77;;;20.90;48.70;;;;;;5018049;28;20034;-66
2023/01/25 10:29:58;;;;;;;2.50;1.75;;;20.90;48.70;;;;;;5020807;28;20500;-67
2023/01/25 10:32:30;;;;;;;2.70;1.88;;;20.90;48.80;;;;;;5020553;28;20113;-67
2023/01/25 10:35:00;;;;;;;2.65;1.73;;;20.80;48.70;;;;;;5020352;28;20057;-67
2023/01/25 10:37:31;;;;;;;2.70;1.70;;;20.80;48.80;;;;;;5022251;28;20026;-66
2023/01/25 10:40:06;;;;;;;2.92;1.80;;;20.80;48.80;;;;;;5018525;28;20084;-66
2023/01/25 10:42:43;;;;;;;2.67;1.70;;;20.80;48.80;;;;;;5022882;28;20129;-67
2023/01/25 10:45:16;;;;;;;2.95;1.80;;;20.80;48.90;;;;;;5021269;28;20477;-67
2023/01/25 10:47:46;;;;;;;2.55;1.60;;;20.80;48.90;;;;;;5023344;28;20026;-68
2023/01/25 10:50:38;;;;;;;2.40;1.60;;;20.80;49.00;;;;;;5019314;28;20182;-67
2023/01/25 10:53:04;;;;;;;2.75;1.70;;;20.70;48.90;;;;;;5022399;28;20382;-66
2023/01/25 10:55:29;;;;;;;3.10;1.83;;;20.70;48.90;;;;;;5021722;28;20025;-67
2023/01/25 10:57:59;;;;;;;2.63;1.73;;;20.70;49.00;;;;;;5019092;28;20136;-67
2023/01/25 11:00:39;;;;;;;2.97;1.80;;;20.70;49.00;;;;;;5023906;28;20474;-67
2023/01/25 11:03:16;;;;;;;2.67;1.70;;;20.70;49.00;;;;;;5021327;28;20044;-66
2023/01/25 11:05:44;;;;;;;2.58;1.70;;;20.70;49.00;;;;;;5028651;28;20040;-67
2023/01/25 11:08:30;;;;;;;2.53;1.70;;;20.60;49.00;;;;;;5019072;28;20026;-67
2023/01/25 11:10:57;;;;;;;2.97;1.73;;;20.60;49.00;;;;;;5020851;28;20033;-67
2023/01/25 11:13:31;;;;;;;3.00;1.70;;;20.60;49.10;;;;;;5019365;28;20485;-67
2023/01/25 11:16:05;;;;;;;3.40;1.90;;;20.60;49.10;;;;;;5022881;28;20724;-67
2023/01/25 11:18:34;;;;;;;2.63;1.75;;;20.60;49.10;;;;;;5020038;28;20030;-67
2023/01/25 11:21:05;;;;;;;3.17;1.70;;;20.50;49.10;;;;;;5015184;28;20434;-67
2023/01/25 11:23:32;;;;;;;3.20;1.90;;;20.50;49.10;;;;;;5037253;28;20123;-67
2023/01/25 11:26:12;;;;;;;3.10;1.92;;;20.50;49.10;;;;;;5037331;28;20405;-67
2023/01/25 11:28:37;;;;;;;2.97;1.70;;;20.50;49.10;;;;;;5023478;28;20025;-67
2023/01/25 11:31:10;;;;;;;3.53;1.75;;;20.50;49.20;;;;;;5021215;28;20155;-66
2023/01/25 11:33:35;;;;;;;3.65;1.90;;;20.50;49.20;;;;;;5015593;28;20021;-67
2023/01/25 11:36:25;;;;;;;3.13;1.65;;;20.50;49.20;;;;;;5015707;28;20052;-67
2023/01/25 11:39:19;;;;;;;3.47;2.00;;;20.40;49.10;;;;;;5023288;28;20113;-67
2023/01/25 11:42:17;;;;;;;3.28;1.67;;;20.40;49.20;;;;;;5022971;28;20121;-67
2023/01/25 11:45:13;;;;;;;3.03;2.22;;;20.40;49.20;;;;;;5020179;28;20095;-67
2023/01/25 11:47:58;;;;;;;3.17;1.90;;;20.40;49.20;;;;;;5019414;28;20054;-67
2023/01/25 11:50:35;;;;;;;3.78;2.17;;;20.40;49.30;;;;;;5020929;28;20026;-67
2023/01/25 11:53:23;;;;;;;3.38;2.15;;;20.40;49.30;;;;;;5019409;28;20029;-67
2023/01/25 11:56:02;;;;;;;3.70;1.73;;;20.30;49.30;;;;;;5018798;28;20049;-67
2023/01/25 11:58:52;;;;;;;3.67;1.93;;;20.30;49.30;;;;;;5021313;28;20261;-66
2023/01/25 12:01:35;;;;;;;3.85;2.05;;;20.30;49.40;;;;;;5022795;28;20040;-67
2023/01/25 12:04:32;;;;;;;3.53;1.90;;;20.30;49.40;;;;;;5019892;28;20030;-66
2023/01/25 12:07:09;;;;;;;3.28;1.90;;;20.30;49.40;;;;;;5020094;28;20033;-67
2023/01/25 12:09:52;;;;;;;3.50;1.88;;;20.30;49.50;;;;;;5026722;28;20481;-67
2023/01/25 12:12:28;;;;;;;4.53;2.10;;;20.30;49.50;;;;;;5020207;28;20440;-66
2023/01/25 12:15:05;;;;;;;3.85;1.80;;;20.30;49.50;;;;;;5022308;28;20017;-66
2023/01/25 12:17:37;;;;;;;3.78;2.05;;;20.20;49.50;;;;;;5020880;28;20514;-67
2023/01/25 12:20:08;;;;;;;4.57;2.10;;;20.20;49.50;;;;;;5023011;28;20599;-66
2023/01/25 12:23:07;;;;;;;3.92;2.00;;;20.20;49.50;;;;;;5022772;28;20037;-66
2023/01/25 12:26:05;;;;;;;4.38;2.30;;;20.20;49.50;;;;;;5017924;28;20041;-66
2023/01/25 12:28:55;;;;;;;4.55;2.30;;;20.20;49.60;;;;;;5017240;28;20060;-67
2023/01/25 12:31:34;;;;;;;3.72;1.90;;;20.20;49.60;;;;;;5018908;28;20497;-68
2023/01/25 12:34:03;;;;;;;3.90;2.20;;;20.20;49.70;;;;;;5025745;28;20064;-68
2023/01/25 12:37:02;;;;;;;5.50;2.97;;;20.20;49.80;;;;;;5022435;28;20162;-69
2023/01/25 12:39:35;;;;;;;7.78;3.30;;;20.20;50.00;;;;;;5023044;28;20088;-67
2023/01/25 12:42:35;;;;;;;5.78;3.03;;;20.30;49.80;;;;;;5018684;28;20465;-66
2023/01/25 12:45:08;;;;;;;8.45;3.00;;;20.40;49.70;;;;;;5020118;28;20053;-66
2023/01/25 12:47:35;;;;;;;6.78;3.50;;;20.40;49.60;;;;;;5017498;28;20069;-67
2023/01/25 12:50:22;;;;;;;6.28;3.63;;;20.50;49.50;;;;;;5020409;28;20106;-68
2023/01/25 12:53:19;;;;;;;6.53;3.33;;;20.60;49.30;;;;;;5020658;28;20041;-67
2023/01/25 12:55:46;;;;;;;5.78;3.08;;;20.60;49.10;;;;;;5017004;28;20049;-66
2023/01/25 12:58:25;;;;;;;6.85;3.50;;;20.60;49.10;;;;;;5017696;28;20017;-67
2023/01/25 13:01:25;;;;;;;8.13;3.53;;;20.70;49.10;;;;;;5020904;28;20058;-68
2023/01/25 13:04:21;;;;;;;6.78;2.83;;;20.70;49.10;;;;;;5021305;28;20117;-68
2023/01/25 13:07:11;;;;;;;7.38;3.00;;;20.70;49.00;;;;;;5023441;28;20026;-66
2023/01/25 13:09:57;;;;;;;6.80;3.40;;;20.70;49.00;;;;;;5022143;28;20121;-67